createdAt,value
2022-08-25T00:03:10.434Z,51.75
2022-08-25T00:09:59.115Z,52.14
2022-08-25T00:11:28.157Z,52.34
2022-08-25T00:17:18.433Z,51.25
2022-08-25T00:35:49.211Z,51.97
2022-08-25T00:38:15.885Z,51.87
2022-08-25T00:42:15.823Z,52.26
2022-08-25T00:43:40.640Z,52.26
2022-08-25T00:46:08.130Z,52.86
2022-08-25T00:47:37.082Z,51.87
2022-08-25T00:52:29.806Z,51.28
2022-08-25T00:56:53.525Z,51.70
2022-08-25T00:58:22.546Z,52.39
2022-08-25T01:02:16.752Z,52.79
2022-08-25T01:05:41.903Z,52.09
2022-08-25T01:09:07.770Z,52.19
2022-08-25T01:11:05.775Z,52.39
2022-08-25T01:18:52.197Z,52.19
2022-08-25T01:21:48.523Z,52.79
2022-08-25T01:27:09.902Z,52.19
2022-08-25T01:34:57.083Z,52.12
2022-08-25T01:39:53.441Z,53.01
2022-08-25T01:41:22.585Z,52.51
2022-08-25T01:48:11.814Z,53.53
2022-08-25T01:56:56.602Z,52.74
2022-08-25T01:58:24.928Z,53.44
2022-08-25T01:59:59.163Z,52.94
2022-08-25T02:04:51.811Z,52.94
2022-08-25T02:11:11.407Z,53.33
2022-08-25T02:13:09.383Z,53.63
2022-08-25T02:18:59.865Z,52.74
2022-08-25T02:21:56.241Z,53.36
2022-08-25T02:27:28.691Z,52.86
2022-08-25T02:28:57.615Z,53.66
2022-08-25T02:31:24.634Z,53.56
2022-08-25T02:40:38.784Z,53.46
2022-08-25T02:42:36.763Z,53.66
2022-08-25T02:44:06.058Z,53.96
2022-08-25T02:46:33.175Z,53.98
2022-08-25T02:48:31.138Z,53.88
2022-08-25T02:53:23.558Z,53.28
2022-08-25T02:54:52.639Z,53.78
2022-08-25T02:56:50.690Z,54.08
2022-08-25T02:59:46.931Z,53.98
2022-08-25T03:01:45.229Z,54.08
2022-08-25T03:06:08.345Z,54.38
2022-08-25T03:16:48.740Z,54.28
2022-08-25T03:18:46.898Z,53.88
2022-08-25T03:22:40.910Z,54.28
2022-08-25T03:28:25.004Z,54.38
2022-08-25T03:33:15.300Z,54.28
2022-08-25T03:42:29.695Z,54.71
2022-08-25T03:44:27.679Z,54.41
2022-08-25T03:46:25.781Z,54.50
2022-08-25T03:50:20.240Z,54.60
2022-08-25T03:52:47.409Z,55.10
2022-08-25T03:54:16.390Z,54.80
2022-08-25T03:55:45.357Z,54.60
2022-08-25T04:00:09.146Z,55.00
2022-08-25T04:06:04.922Z,55.43
2022-08-25T04:08:03.042Z,55.43
2022-08-25T04:09:36.383Z,55.33
2022-08-25T04:16:49.356Z,55.53
2022-08-25T04:32:21.614Z,56.12
2022-08-25T04:35:47.056Z,56.15
2022-08-25T04:41:37.449Z,56.15
2022-08-25T04:44:34.261Z,56.25
2022-08-25T04:49:56.006Z,56.05
2022-08-25T04:53:21.448Z,56.15
2022-08-25T05:00:39.374Z,56.25
2022-08-25T05:03:35.712Z,56.45
2022-08-25T05:07:01.609Z,56.45
2022-08-25T05:10:56.105Z,56.85
2022-08-25T05:19:12.052Z,56.85
2022-08-25T05:24:04.767Z,57.15
2022-08-25T05:33:19.498Z,57.24
2022-08-25T05:36:45.447Z,57.05
2022-08-25T05:38:15.278Z,56.95
2022-08-25T05:40:12.153Z,57.12
2022-08-25T05:43:38.636Z,57.02
2022-08-25T05:49:01.465Z,56.92
2022-08-25T05:50:59.587Z,56.72
2022-08-25T05:53:26.849Z,56.82
2022-08-25T06:11:55.198Z,56.87
2022-08-25T06:14:20.319Z,56.77
2022-08-25T06:18:43.860Z,56.67
2022-08-25T06:21:40.279Z,56.74
2022-08-25T06:23:09.642Z,56.74
2022-08-25T06:28:56.671Z,56.64
2022-08-25T06:46:36.616Z,56.68
2022-08-25T06:47:55.515Z,56.29
2022-08-25T06:52:48.556Z,56.46
2022-08-25T06:54:47.080Z,56.36
2022-08-25T07:04:00.652Z,56.43
2022-08-25T07:07:54.826Z,56.34
2022-08-25T07:10:22.181Z,56.13
2022-08-25T07:15:20.430Z,56.30
2022-08-25T07:26:55.491Z,55.88
2022-08-25T07:35:40.738Z,55.58
2022-08-25T07:40:04.742Z,55.85
2022-08-25T07:45:26.601Z,56.55
2022-08-25T07:55:11.086Z,55.73
2022-08-25T08:05:23.992Z,55.47
2022-08-25T08:06:52.534Z,54.88
2022-08-25T08:08:50.527Z,54.79
2022-08-25T08:11:03.248Z,55.58
2022-08-25T08:12:18.741Z,57.06
2022-08-25T08:14:46.060Z,54.59
2022-08-25T08:18:11.395Z,54.46
2022-08-25T08:23:08.308Z,54.36
2022-08-25T08:27:02.828Z,54.44
2022-08-25T08:29:01.186Z,53.94
2022-08-25T08:36:39.065Z,53.75
2022-08-25T08:55:35.580Z,54.38
2022-08-25T08:59:05.642Z,53.20
2022-08-25T09:04:24.341Z,53.08
2022-08-25T09:13:36.857Z,53.05
2022-08-25T09:17:31.584Z,53.15
2022-08-25T09:19:29.647Z,53.15
2022-08-25T09:22:55.063Z,53.64
2022-08-25T09:26:20.394Z,53.02
2022-08-25T09:27:49.383Z,52.04
2022-08-25T09:29:18.401Z,51.94
2022-08-25T09:33:41.966Z,51.81
2022-08-25T09:41:00.876Z,51.03
2022-08-25T09:44:53.891Z,51.00
2022-08-25T09:47:50.044Z,50.71
2022-08-25T09:50:46.754Z,50.31
2022-08-25T09:53:17.079Z,50.02
2022-08-25T09:56:10.646Z,50.31
2022-08-25T09:58:09.615Z,50.31
2022-08-25T10:04:57.635Z,50.21
2022-08-25T10:06:55.519Z,48.83
2022-08-25T10:09:22.834Z,49.23
2022-08-25T10:11:50.212Z,48.91
2022-08-25T10:20:55.972Z,48.82
2022-08-25T10:24:50.146Z,48.82
2022-08-25T10:26:48.232Z,48.52
2022-08-25T10:30:42.765Z,46.94
2022-08-25T10:32:40.704Z,46.92
2022-08-25T10:34:09.630Z,46.23
2022-08-25T10:36:07.926Z,47.41
2022-08-25T10:39:04.094Z,47.51
2022-08-25T10:46:22.997Z,43.48
2022-08-25T10:48:22.292Z,44.05
2022-08-25T10:51:21.432Z,43.75
2022-08-25T10:53:16.916Z,43.36
2022-08-25T10:55:43.492Z,42.85
2022-08-25T10:58:10.605Z,44.22
2022-08-25T11:02:04.779Z,42.75
2022-08-25T11:05:00.964Z,44.52
2022-08-25T11:11:50.208Z,42.55
2022-08-25T11:13:20.150Z,40.48
2022-08-25T11:14:48.242Z,40.39
2022-08-25T11:17:44.355Z,42.45
2022-08-25T11:19:13.325Z,42.85
2022-08-25T11:20:42.330Z,43.12
2022-08-25T11:22:40.907Z,43.80
2022-08-25T11:26:36.881Z,42.92
2022-08-25T11:32:54.107Z,43.00
2022-08-25T11:35:32.174Z,43.39
2022-08-25T11:39:31.213Z,41.92
2022-08-25T11:42:25.856Z,40.74
2022-08-25T11:44:22.981Z,39.54
2022-08-25T11:45:54.107Z,39.94
2022-08-25T11:48:19.056Z,41.71
2022-08-25T11:50:17.533Z,42.00
2022-08-25T11:59:02.772Z,41.71
2022-08-25T12:00:32.011Z,41.41
2022-08-25T12:03:27.848Z,42.29
2022-08-25T12:09:47.091Z,43.57
2022-08-25T12:15:37.473Z,42.10
2022-08-25T12:19:51.852Z,41.51
2022-08-25T12:22:18.820Z,40.90
2022-08-25T12:24:47.931Z,40.61
2022-08-25T12:26:15.000Z,40.70
2022-08-25T12:28:42.407Z,41.29
2022-08-25T12:31:38.486Z,41.49
2022-08-25T12:35:32.649Z,41.58
2022-08-25T12:37:59.786Z,41.88
2022-08-25T12:41:25.099Z,42.27
2022-08-25T12:47:23.460Z,41.09
2022-08-25T12:51:14.839Z,41.68
2022-08-25T12:53:13.042Z,41.00
2022-08-25T12:58:58.503Z,41.09
2022-08-25T13:02:03.040Z,41.98
2022-08-25T13:04:57.776Z,40.70
2022-08-25T13:06:26.797Z,40.61
2022-08-25T13:08:53.786Z,40.21
2022-08-25T13:11:20.918Z,40.61
2022-08-25T13:16:42.737Z,41.27
2022-08-25T13:18:40.685Z,40.29
2022-08-25T13:20:09.780Z,40.19
2022-08-25T13:23:07.330Z,40.08
2022-08-25T13:27:30.376Z,39.49
2022-08-25T13:36:15.563Z,39.39
2022-08-25T13:39:56.139Z,39.78
2022-08-25T13:53:21.692Z,38.10
2022-08-25T14:01:23.232Z,38.90
2022-08-25T14:04:34.759Z,39.17
2022-08-25T14:07:01.839Z,38.59
2022-08-25T14:09:28.980Z,38.68
2022-08-25T14:10:58.032Z,39.17
2022-08-25T14:12:29.175Z,39.37
2022-08-25T14:14:27.011Z,39.47
2022-08-25T14:16:54.585Z,39.37
2022-08-25T14:18:26.971Z,38.20
2022-08-25T14:22:18.521Z,38.68
2022-08-25T14:25:13.772Z,38.49
2022-08-25T14:28:10.933Z,38.10
2022-08-25T14:30:37.364Z,37.21
2022-08-25T14:33:04.525Z,36.63
2022-08-25T14:34:33.458Z,37.21
2022-08-25T14:37:58.607Z,37.71
2022-08-25T14:50:06.478Z,39.37
2022-08-25T14:54:32.729Z,38.37
2022-08-25T14:58:26.010Z,38.28
2022-08-25T14:59:54.645Z,37.41
2022-08-25T15:05:46.383Z,37.71
2022-08-25T15:10:39.078Z,40.06
2022-08-25T15:17:00.845Z,39.88
2022-08-25T15:19:26.836Z,39.88
2022-08-25T15:20:56.180Z,39.98
2022-08-25T15:23:23.458Z,40.08
2022-08-25T15:25:21.231Z,40.08
2022-08-25T15:28:48.522Z,40.37
2022-08-25T15:32:34.018Z,40.56
2022-08-25T15:34:03.044Z,40.68
2022-08-25T15:40:52.107Z,41.27
2022-08-25T15:46:14.050Z,40.88
2022-08-25T15:49:39.598Z,40.90
2022-08-25T15:52:46.683Z,41.09
2022-08-25T15:55:03.980Z,41.19
2022-08-25T15:56:32.932Z,41.19
2022-08-25T15:58:30.999Z,41.19
2022-08-25T16:01:27.159Z,40.61
2022-08-25T16:03:54.389Z,40.70
2022-08-25T16:06:50.506Z,40.80
2022-08-25T16:08:19.923Z,41.00
2022-08-25T16:19:01.594Z,40.31
2022-08-25T16:20:30.602Z,40.41
2022-08-25T16:23:56.255Z,40.70
2022-08-25T16:28:50.392Z,40.82
2022-08-25T16:31:53.286Z,40.53
2022-08-25T16:34:15.149Z,40.92
2022-08-25T16:36:13.134Z,41.90
2022-08-25T16:44:58.639Z,42.02
2022-08-25T16:46:57.074Z,41.82
2022-08-25T16:49:24.389Z,41.92
2022-08-25T16:52:49.791Z,42.02
2022-08-25T16:56:15.284Z,42.32
2022-08-25T16:59:12.280Z,41.63
2022-08-25T17:00:41.317Z,41.63
2022-08-25T17:02:11.010Z,42.02
2022-08-25T17:04:37.567Z,42.21
2022-08-25T17:08:31.891Z,41.24
2022-08-25T17:12:26.374Z,41.53
2022-08-25T17:24:06.933Z,41.84
2022-08-25T17:25:36.035Z,42.24
2022-08-25T17:28:03.529Z,42.82
2022-08-25T17:31:30.794Z,42.82
2022-08-25T17:33:56.379Z,42.24
2022-08-25T17:37:22.193Z,42.24
2022-08-25T17:39:22.352Z,42.45
2022-08-25T17:40:49.653Z,42.85
2022-08-25T17:42:48.019Z,42.75
2022-08-25T17:47:40.722Z,42.55
2022-08-25T17:49:09.753Z,42.85
2022-08-25T17:55:29.608Z,42.35
2022-08-25T18:02:19.968Z,44.05
2022-08-25T18:07:41.661Z,44.93
2022-08-25T18:10:08.837Z,44.85
2022-08-25T18:12:06.913Z,44.95
2022-08-25T18:15:32.050Z,45.35
2022-08-25T18:24:18.451Z,46.35
2022-08-25T18:25:46.918Z,46.75
2022-08-25T18:27:16.033Z,46.75
2022-08-25T18:29:44.323Z,46.94
2022-08-25T18:31:42.658Z,46.87
2022-08-25T18:35:07.056Z,47.66
2022-08-25T18:37:05.080Z,47.16
2022-08-25T18:39:03.339Z,47.56
2022-08-25T18:41:31.315Z,48.44
2022-08-25T18:43:00.373Z,49.16
2022-08-25T18:44:29.489Z,48.76
2022-08-25T18:45:58.599Z,49.26
2022-08-25T18:47:27.697Z,48.96
2022-08-25T18:49:26.834Z,49.65
2022-08-25T18:52:52.103Z,49.95
2022-08-25T18:59:17.407Z,50.16
2022-08-25T19:00:46.420Z,49.08
2022-08-25T19:03:42.961Z,49.48
2022-08-25T19:09:05.479Z,51.25
2022-08-25T19:14:29.055Z,51.67
2022-08-25T19:16:27.199Z,51.47
2022-08-25T19:19:23.367Z,51.77
2022-08-25T19:21:51.042Z,51.50
2022-08-25T19:25:17.054Z,51.89
2022-08-25T19:27:14.895Z,52.39
2022-08-25T19:31:58.187Z,52.09
2022-08-25T19:34:07.172Z,52.58
2022-08-25T19:38:01.939Z,53.00
2022-08-25T19:43:56.609Z,52.51
2022-08-25T19:48:46.996Z,53.12
2022-08-25T19:50:45.123Z,53.33
2022-08-25T19:52:14.112Z,53.12
2022-08-25T19:54:12.285Z,53.12
2022-08-25T19:56:43.870Z,53.33
2022-08-25T20:01:04.748Z,53.33
2022-08-25T20:02:33.739Z,53.33
2022-08-25T20:04:03.002Z,53.52
2022-08-25T20:07:58.245Z,53.52
2022-08-25T20:17:24.551Z,53.05
2022-08-25T20:20:44.822Z,53.55
2022-08-25T20:24:10.583Z,53.94
2022-08-25T20:25:39.713Z,54.04
2022-08-25T20:32:30.078Z,53.94
2022-08-25T20:34:00.458Z,54.24
2022-08-25T20:35:27.958Z,54.17
2022-08-25T20:39:53.606Z,54.56
2022-08-25T20:41:22.543Z,54.46
2022-08-25T20:43:49.812Z,54.27
2022-08-25T20:56:01.477Z,55.08
2022-08-25T21:00:25.722Z,55.38
2022-08-25T21:02:23.865Z,55.38
2022-08-25T21:05:53.577Z,55.28
2022-08-25T21:07:47.841Z,55.58
2022-08-25T21:09:45.928Z,55.68
2022-08-25T21:12:42.365Z,55.47
2022-08-25T21:14:40.320Z,55.68
2022-08-25T21:17:36.910Z,55.80
2022-08-25T21:20:04.109Z,55.90
2022-08-25T21:24:56.412Z,55.90
2022-08-25T21:32:52.933Z,56.20
2022-08-25T21:34:17.763Z,56.00
2022-08-25T21:36:15.912Z,56.00
2022-08-25T21:39:32.106Z,56.40
2022-08-25T21:41:00.871Z,56.49
2022-08-25T21:44:26.237Z,56.79
2022-08-25T21:48:55.821Z,56.92
2022-08-25T21:50:53.917Z,56.72
2022-08-25T21:55:18.017Z,56.02
2022-08-25T21:56:47.083Z,56.42
2022-08-25T21:59:14.230Z,56.62
2022-08-25T22:02:32.696Z,56.82
2022-08-25T22:04:59.960Z,57.21
2022-08-25T22:13:51.697Z,57.51
2022-08-25T22:15:52.085Z,57.41
2022-08-25T22:18:50.301Z,57.51
2022-08-25T22:21:47.670Z,57.61
2022-08-25T22:23:19.737Z,57.61
2022-08-25T22:27:15.757Z,58.01
2022-08-25T22:33:09.064Z,58.20
2022-08-25T22:36:01.926Z,58.20
2022-08-25T22:39:34.191Z,58.83
2022-08-25T22:41:32.286Z,58.43
2022-08-25T22:45:27.620Z,59.03
2022-08-25T22:49:22.667Z,59.12
2022-08-25T22:51:21.235Z,59.12
2022-08-25T22:57:40.974Z,59.52
2022-08-25T23:00:37.428Z,59.42
2022-08-25T23:02:06.409Z,59.52
2022-08-25T23:04:25.147Z,58.65
2022-08-25T23:12:37.953Z,58.46
2022-08-25T23:14:08.565Z,58.53
2022-08-25T23:15:40.896Z,58.75
2022-08-25T23:17:28.326Z,58.86
2022-08-25T23:19:28.107Z,58.75
2022-08-25T23:22:03.613Z,58.43
2022-08-25T23:23:48.451Z,58.23
2022-08-25T23:25:47.173Z,57.34
2022-08-25T23:28:14.425Z,57.46
2022-08-25T23:33:07.415Z,57.46
2022-08-25T23:37:26.860Z,57.46
2022-08-25T23:39:25.282Z,57.86
2022-08-25T23:40:58.674Z,57.97
2022-08-25T23:42:25.649Z,58.29
2022-08-25T23:44:50.930Z,58.48
2022-08-25T23:50:15.357Z,58.98
2022-08-25T23:55:09.896Z,60.07
2022-08-25T23:58:06.616Z,60.47
